createdAt,value
2018-01-30T00:01:33.188Z,5.60
2018-01-30T00:04:02.217Z,5.60
2018-01-30T00:06:31.219Z,5.60
2018-01-30T00:09:00.190Z,5.70
2018-01-30T00:11:29.263Z,5.70
2018-01-30T00:13:58.307Z,5.70
2018-01-30T00:16:27.362Z,5.70
2018-01-30T00:18:57.075Z,5.60
2018-01-30T00:21:26.044Z,5.70
2018-01-30T00:23:55.094Z,5.70
2018-01-30T00:26:24.088Z,5.60
2018-01-30T00:28:53.015Z,5.70
2018-01-30T00:31:22.087Z,5.60
2018-01-30T00:33:51.288Z,5.60
2018-01-30T00:36:20.245Z,5.70
2018-01-30T00:38:49.303Z,5.70
2018-01-30T00:41:18.355Z,5.80
2018-01-30T00:43:47.314Z,5.70
2018-01-30T00:46:17.995Z,5.60
2018-01-30T00:48:46.979Z,5.60
2018-01-30T00:51:16.706Z,5.60
2018-01-30T00:53:45.759Z,5.60
2018-01-30T00:56:14.887Z,5.60
2018-01-30T00:58:44.010Z,5.60
2018-01-30T01:01:12.984Z,5.70
2018-01-30T01:03:42.395Z,5.60
2018-01-30T01:06:11.863Z,5.50
2018-01-30T01:08:40.802Z,5.50
2018-01-30T01:11:09.779Z,5.50
2018-01-30T01:13:38.761Z,5.40
2018-01-30T01:16:08.525Z,5.40
2018-01-30T01:18:37.517Z,5.40
2018-01-30T01:21:06.475Z,5.30
2018-01-30T01:23:35.424Z,5.20
2018-01-30T01:26:04.401Z,5.20
2018-01-30T01:28:33.357Z,5.10
2018-01-30T01:31:03.279Z,5.20
2018-01-30T01:33:32.344Z,5.10
2018-01-30T01:36:01.832Z,5.10
2018-01-30T01:38:31.564Z,5.10
2018-01-30T01:41:00.635Z,5.00
2018-01-30T01:43:30.383Z,5.00
2018-01-30T01:45:59.410Z,4.90
2018-01-30T01:48:28.398Z,5.00
2018-01-30T01:50:57.746Z,4.90
2018-01-30T01:53:26.681Z,4.90
2018-01-30T01:55:55.693Z,5.00
2018-01-30T01:58:24.689Z,4.90
2018-01-30T02:00:53.641Z,4.80
2018-01-30T02:03:22.634Z,4.90
2018-01-30T02:05:51.610Z,4.80
2018-01-30T02:08:20.619Z,4.80
2018-01-30T02:10:49.608Z,4.90
2018-01-30T02:13:19.156Z,4.90
2018-01-30T02:15:48.968Z,4.90
2018-01-30T02:18:18.908Z,4.90
2018-01-30T02:20:47.877Z,4.70
2018-01-30T02:23:16.855Z,4.70
2018-01-30T02:25:45.836Z,4.70
2018-01-30T02:28:14.835Z,4.70
2018-01-30T02:30:43.879Z,4.70
2018-01-30T02:33:12.847Z,4.70
2018-01-30T02:35:42.668Z,4.70
2018-01-30T02:38:12.383Z,4.70
2018-01-30T02:40:42.179Z,4.60
2018-01-30T02:43:11.603Z,4.50
2018-01-30T02:45:41.431Z,4.50
2018-01-30T02:48:10.411Z,4.50
2018-01-30T02:50:40.179Z,4.50
2018-01-30T02:53:09.231Z,4.50
2018-01-30T02:55:38.295Z,4.60
2018-01-30T02:58:08.047Z,4.50
2018-01-30T03:00:37.004Z,4.50
2018-01-30T03:03:06.448Z,4.40
2018-01-30T03:05:35.458Z,4.40
2018-01-30T03:08:04.801Z,4.50
2018-01-30T03:10:34.588Z,4.50
2018-01-30T03:13:03.543Z,4.50
2018-01-30T03:15:32.641Z,4.40
2018-01-30T03:18:01.588Z,4.50
2018-01-30T03:20:31.361Z,5.30
2018-01-30T03:23:00.760Z,4.50
2018-01-30T03:25:29.700Z,4.50
2018-01-30T03:27:58.735Z,4.40
2018-01-30T03:30:28.443Z,4.40
2018-01-30T03:32:57.403Z,4.50
2018-01-30T03:35:26.760Z,4.50
2018-01-30T03:37:55.716Z,4.40
2018-01-30T03:40:24.678Z,4.50
2018-01-30T03:42:54.450Z,4.60
2018-01-30T03:45:24.225Z,4.60
2018-01-30T03:47:53.647Z,4.60
2018-01-30T03:50:23.369Z,4.60
2018-01-30T03:52:52.378Z,4.60
2018-01-30T03:55:22.162Z,4.60
2018-01-30T03:57:51.125Z,4.70
2018-01-30T04:00:20.886Z,4.60
2018-01-30T04:02:50.240Z,4.60
2018-01-30T04:05:20.718Z,4.60
2018-01-30T04:07:49.677Z,4.60
2018-01-30T04:10:19.055Z,4.60
2018-01-30T04:12:48.137Z,4.50
2018-01-30T04:15:17.323Z,4.50
2018-01-30T04:17:47.051Z,4.60
2018-01-30T04:20:16.445Z,4.70
2018-01-30T04:22:45.463Z,4.60
2018-01-30T04:25:14.442Z,4.70
2018-01-30T04:27:43.379Z,4.70
2018-01-30T04:30:13.142Z,4.70
2018-01-30T04:32:42.618Z,4.60
2018-01-30T04:35:11.571Z,4.60
2018-01-30T04:37:41.295Z,4.60
2018-01-30T04:40:10.937Z,4.50
2018-01-30T04:42:40.698Z,4.40
2018-01-30T04:45:10.117Z,4.50
2018-01-30T04:47:39.080Z,4.40
2018-01-30T04:50:08.094Z,4.40
2018-01-30T04:52:37.075Z,4.40
2018-01-30T04:55:06.459Z,4.40
2018-01-30T04:57:35.400Z,4.40
2018-01-30T05:00:04.576Z,4.30
2018-01-30T05:02:33.587Z,4.30
2018-01-30T05:05:02.595Z,4.30
2018-01-30T05:07:31.560Z,4.40
2018-01-30T05:10:00.494Z,4.30
2018-01-30T05:12:29.457Z,4.30
2018-01-30T05:14:59.234Z,4.20
2018-01-30T05:17:28.285Z,4.30
2018-01-30T05:19:58.135Z,4.30
2018-01-30T05:22:27.084Z,4.30
2018-01-30T05:24:56.815Z,4.20
2018-01-30T05:27:25.794Z,4.20
2018-01-30T05:29:55.562Z,4.20
2018-01-30T05:32:25.041Z,4.10
2018-01-30T05:34:53.985Z,4.10
2018-01-30T05:37:23.717Z,4.00
2018-01-30T05:39:52.721Z,4.00
2018-01-30T05:42:21.778Z,3.90
2018-01-30T05:44:50.712Z,4.00
2018-01-30T05:47:19.765Z,4.10
2018-01-30T05:49:48.737Z,3.90
2018-01-30T05:52:17.777Z,3.90
2018-01-30T05:54:46.771Z,3.90
2018-01-30T05:57:15.746Z,3.90
2018-01-30T05:59:45.482Z,3.90
2018-01-30T06:02:14.480Z,3.90
2018-01-30T06:04:43.454Z,3.90
2018-01-30T06:07:12.447Z,3.80
2018-01-30T06:09:41.446Z,3.90
2018-01-30T06:12:10.511Z,3.90
2018-01-30T06:14:39.503Z,3.90
2018-01-30T06:17:08.463Z,3.80
2018-01-30T06:19:37.436Z,3.90
2018-01-30T06:22:07.265Z,4.00
2018-01-30T06:24:36.293Z,4.00
2018-01-30T06:27:06.080Z,4.00
2018-01-30T06:29:35.111Z,4.00
2018-01-30T06:32:04.093Z,3.90
2018-01-30T06:34:33.831Z,3.90
2018-01-30T06:37:03.401Z,3.80
2018-01-30T06:39:33.876Z,4.10
2018-01-30T06:42:03.639Z,3.70
2018-01-30T06:44:32.619Z,3.60
2018-01-30T06:47:02.401Z,3.70
2018-01-30T06:49:31.404Z,3.70
2018-01-30T06:52:00.337Z,3.60
2018-01-30T06:54:30.127Z,3.70
2018-01-30T06:56:59.601Z,3.60
2018-01-30T06:59:28.590Z,3.70
2018-01-30T07:01:58.121Z,3.70
2018-01-30T07:04:27.848Z,3.70
2018-01-30T07:06:57.575Z,3.60
2018-01-30T07:09:27.320Z,3.60
2018-01-30T07:11:57.039Z,3.60
2018-01-30T07:14:27.231Z,3.60
2018-01-30T07:16:56.225Z,3.70
2018-01-30T07:19:25.169Z,3.60
2018-01-30T07:21:54.584Z,3.70
2018-01-30T07:24:24.448Z,3.70
2018-01-30T07:26:53.493Z,3.70
2018-01-30T07:29:22.475Z,3.80
2018-01-30T07:31:52.184Z,3.70
2018-01-30T07:34:21.159Z,3.70
2018-01-30T07:36:50.495Z,3.70
2018-01-30T07:39:19.978Z,3.70
2018-01-30T07:41:48.924Z,3.70
2018-01-30T07:44:18.546Z,3.70
2018-01-30T07:46:47.491Z,3.70
2018-01-30T07:49:17.337Z,3.70
2018-01-30T07:51:46.366Z,3.70
2018-01-30T07:54:15.895Z,3.70
2018-01-30T07:56:45.649Z,3.90
2018-01-30T07:59:14.698Z,3.80
2018-01-30T08:01:44.508Z,3.90
2018-01-30T08:04:14.515Z,4.00
2018-01-30T08:06:43.799Z,4.00
2018-01-30T08:09:12.774Z,4.00
2018-01-30T08:11:41.715Z,4.00
2018-01-30T08:14:11.467Z,4.10
2018-01-30T08:16:41.456Z,4.10
2018-01-30T08:19:10.873Z,4.10
2018-01-30T08:21:40.236Z,4.10
2018-01-30T08:24:09.958Z,4.10
2018-01-30T08:26:39.120Z,4.20
2018-01-30T08:29:08.086Z,4.20
2018-01-30T08:31:37.081Z,4.30
2018-01-30T08:34:06.825Z,4.40
2018-01-30T08:36:36.181Z,4.30
2018-01-30T08:39:05.157Z,4.40
2018-01-30T08:41:34.144Z,4.40
2018-01-30T08:44:03.517Z,4.50
2018-01-30T08:46:32.907Z,4.50
2018-01-30T08:49:01.909Z,4.60
2018-01-30T08:51:30.940Z,4.60
2018-01-30T08:53:59.901Z,4.70
2018-01-30T08:56:30.534Z,4.80
2018-01-30T08:58:59.525Z,4.80
2018-01-30T09:01:29.995Z,4.90
2018-01-30T09:03:58.985Z,4.80
2018-01-30T09:06:27.948Z,5.00
2018-01-30T09:08:57.650Z,4.90
2018-01-30T09:11:27.432Z,5.00
2018-01-30T09:13:57.917Z,5.00
2018-01-30T09:16:28.072Z,5.10
2018-01-30T09:18:57.131Z,5.10
2018-01-30T09:21:27.528Z,5.20
2018-01-30T09:23:57.314Z,5.30
2018-01-30T09:26:26.260Z,5.40
2018-01-30T09:28:56.053Z,5.40
2018-01-30T09:31:26.064Z,5.50
2018-01-30T09:33:55.865Z,5.50
2018-01-30T09:36:24.858Z,5.50
2018-01-30T09:38:53.925Z,5.60
2018-01-30T09:41:22.907Z,5.80
2018-01-30T09:43:51.943Z,6.00
2018-01-30T09:46:21.678Z,6.00
2018-01-30T09:48:50.677Z,6.10
2018-01-30T09:51:19.678Z,6.10
2018-01-30T09:53:48.695Z,6.20
2018-01-30T09:56:18.066Z,6.30
2018-01-30T09:58:47.223Z,6.50
2018-01-30T10:01:16.192Z,6.40
2018-01-30T10:03:45.226Z,6.50
2018-01-30T10:06:14.239Z,6.60
2018-01-30T10:08:45.018Z,6.70
2018-01-30T10:11:14.028Z,6.70
2018-01-30T10:13:43.022Z,6.70
2018-01-30T10:16:12.805Z,6.80
2018-01-30T10:18:41.813Z,6.70
2018-01-30T10:21:10.794Z,6.80
2018-01-30T10:23:39.771Z,6.80
2018-01-30T10:26:08.781Z,6.90
2018-01-30T10:28:38.851Z,6.80
2018-01-30T10:31:07.912Z,6.80
2018-01-30T10:33:36.875Z,6.70
2018-01-30T10:36:06.617Z,6.80
2018-01-30T10:38:35.824Z,6.80
2018-01-30T10:41:05.565Z,6.80
2018-01-30T10:43:34.596Z,6.80
2018-01-30T10:46:03.595Z,6.90
2018-01-30T10:48:33.389Z,6.90
2018-01-30T10:51:03.161Z,6.80
2018-01-30T10:53:32.272Z,6.70
2018-01-30T10:56:01.239Z,6.80
2018-01-30T10:58:30.211Z,6.90
2018-01-30T11:00:59.620Z,6.80
2018-01-30T11:03:29.404Z,6.80
2018-01-30T11:05:59.222Z,7.00
2018-01-30T11:08:28.253Z,7.10
2018-01-30T11:10:57.317Z,7.30
2018-01-30T11:13:26.318Z,7.30
2018-01-30T11:15:55.366Z,7.50
2018-01-30T11:18:24.375Z,7.50
2018-01-30T11:20:53.714Z,7.40
2018-01-30T11:23:23.549Z,7.30
2018-01-30T11:25:52.598Z,7.30
2018-01-30T11:28:22.042Z,7.40
2018-01-30T11:30:51.213Z,7.40
2018-01-30T11:33:20.215Z,7.60
2018-01-30T11:35:49.608Z,7.60
2018-01-30T11:38:18.817Z,7.60
2018-01-30T11:40:47.856Z,7.60
2018-01-30T11:43:17.318Z,7.50
2018-01-30T11:45:47.121Z,7.60
2018-01-30T11:48:16.182Z,7.60
2018-01-30T11:50:45.301Z,7.40
2018-01-30T11:53:14.408Z,7.40
2018-01-30T11:55:43.579Z,7.40
2018-01-30T11:58:12.562Z,7.60
2018-01-30T12:00:41.738Z,7.30
2018-01-30T12:03:11.120Z,7.30
2018-01-30T12:05:40.578Z,7.40
2018-01-30T12:08:09.688Z,7.40
2018-01-30T12:10:39.592Z,7.30
2018-01-30T12:13:09.462Z,7.20
2018-01-30T12:15:38.500Z,7.10
2018-01-30T12:18:07.892Z,7.10
2018-01-30T12:20:38.396Z,7.20
2018-01-30T12:23:07.800Z,7.30
2018-01-30T12:25:37.244Z,7.60
2018-01-30T12:28:07.025Z,7.70
2018-01-30T12:30:35.982Z,7.80
2018-01-30T12:33:04.993Z,7.80
2018-01-30T12:35:34.022Z,8.20
2018-01-30T12:38:03.403Z,8.40
2018-01-30T12:40:32.412Z,8.30
2018-01-30T12:43:01.408Z,8.10
2018-01-30T12:45:30.908Z,8.00
2018-01-30T12:48:00.356Z,8.10
2018-01-30T12:50:29.787Z,8.10
2018-01-30T12:52:58.902Z,8.10
2018-01-30T12:55:28.443Z,8.10
2018-01-30T12:57:58.833Z,8.30
2018-01-30T13:00:28.460Z,8.60
2018-01-30T13:02:58.444Z,8.60
2018-01-30T13:05:28.269Z,8.70
2018-01-30T13:07:58.667Z,8.70
2018-01-30T13:10:28.183Z,9.00
2018-01-30T13:12:57.635Z,9.30
2018-01-30T13:15:27.498Z,9.20
2018-01-30T13:17:56.562Z,8.80
2018-01-30T13:20:26.345Z,8.70
2018-01-30T13:22:56.184Z,8.30
2018-01-30T13:25:25.154Z,8.10
2018-01-30T13:27:54.660Z,8.00
2018-01-30T13:30:24.554Z,8.00
2018-01-30T13:32:53.510Z,7.90
2018-01-30T13:35:23.310Z,7.60
2018-01-30T13:37:52.323Z,7.60
2018-01-30T13:40:22.082Z,7.60
2018-01-30T13:42:51.073Z,7.50
2018-01-30T13:45:20.837Z,7.60
2018-01-30T13:47:49.855Z,7.50
2018-01-30T13:50:19.634Z,8.00
2018-01-30T13:52:48.640Z,8.60
2018-01-30T13:55:19.263Z,9.00
2018-01-30T13:57:48.264Z,9.60
2018-01-30T14:00:18.517Z,10.90
2018-01-30T14:02:48.308Z,11.50
2018-01-30T14:05:17.779Z,11.90
2018-01-30T14:07:46.784Z,11.60
2018-01-30T14:10:16.565Z,11.40
2018-01-30T14:12:45.598Z,10.60
2018-01-30T14:15:14.715Z,10.20
2018-01-30T14:17:44.088Z,10.50
2018-01-30T14:20:13.494Z,10.50
2018-01-30T14:22:43.362Z,10.00
2018-01-30T14:25:12.381Z,9.70
2018-01-30T14:27:41.357Z,9.10
2018-01-30T14:30:10.358Z,8.90
2018-01-30T14:32:40.510Z,9.10
2018-01-30T14:35:09.479Z,9.20
2018-01-30T14:37:38.485Z,9.20
2018-01-30T14:40:07.504Z,8.70
2018-01-30T14:42:36.895Z,8.60
2018-01-30T14:45:06.670Z,9.00
2018-01-30T14:47:35.749Z,9.40
2018-01-30T14:50:04.840Z,10.00
2018-01-30T14:52:34.007Z,10.30
2018-01-30T14:55:03.815Z,10.60
2018-01-30T14:57:32.911Z,10.50
2018-01-30T15:00:03.364Z,10.70
2018-01-30T15:02:33.536Z,10.60
2018-01-30T15:05:02.544Z,10.00
2018-01-30T15:07:32.364Z,9.20
2018-01-30T15:10:01.737Z,8.80
2018-01-30T15:12:30.732Z,8.40
2018-01-30T15:15:00.252Z,8.10
2018-01-30T15:17:29.617Z,8.00
2018-01-30T15:19:58.587Z,7.90
2018-01-30T15:22:27.589Z,7.90
2018-01-30T15:24:56.621Z,7.80
2018-01-30T15:27:25.635Z,7.90
2018-01-30T15:29:54.632Z,8.00
2018-01-30T15:32:24.365Z,8.00
2018-01-30T15:34:53.359Z,7.80
2018-01-30T15:37:22.725Z,7.70
2018-01-30T15:39:51.720Z,7.70
2018-01-30T15:42:21.478Z,7.70
2018-01-30T15:44:50.495Z,7.50
2018-01-30T15:47:19.465Z,7.30
2018-01-30T15:49:49.531Z,7.30
2018-01-30T15:52:18.598Z,7.30
2018-01-30T15:54:48.420Z,7.10
2018-01-30T15:57:17.534Z,7.10
2018-01-30T15:59:46.604Z,7.00
2018-01-30T16:02:15.655Z,7.10
2018-01-30T16:04:45.222Z,7.10
2018-01-30T16:07:15.253Z,6.90
2018-01-30T16:09:45.029Z,6.80
2018-01-30T16:12:15.896Z,6.80
2018-01-30T16:14:46.529Z,6.70
2018-01-30T16:17:15.556Z,6.70
2018-01-30T16:19:46.744Z,6.70
2018-01-30T16:22:16.757Z,6.60
2018-01-30T16:24:46.249Z,6.60
2018-01-30T16:27:16.073Z,6.50
2018-01-30T16:29:45.818Z,6.50
2018-01-30T16:32:15.958Z,6.50
2018-01-30T16:34:44.975Z,6.40
2018-01-30T16:37:14.364Z,6.40
2018-01-30T16:39:43.420Z,6.40
2018-01-30T16:42:12.923Z,6.30
2018-01-30T16:44:42.297Z,6.20
2018-01-30T16:47:11.279Z,6.10
2018-01-30T16:49:40.282Z,6.10
2018-01-30T16:52:09.481Z,6.10
2018-01-30T16:54:38.448Z,5.90
2018-01-30T16:57:07.521Z,5.90
2018-01-30T16:59:37.009Z,5.90
2018-01-30T17:02:06.533Z,5.90
2018-01-30T17:04:44.190Z,5.80
2018-01-30T17:07:13.140Z,5.90
2018-01-30T17:09:43.021Z,5.90
2018-01-30T17:12:12.600Z,5.90
2018-01-30T17:14:42.412Z,5.90
2018-01-30T17:17:11.421Z,5.80
2018-01-30T17:19:40.396Z,5.70
2018-01-30T17:22:09.905Z,5.70
2018-01-30T17:24:39.257Z,5.70
2018-01-30T17:27:08.238Z,5.60
2018-01-30T17:29:37.872Z,5.60
2018-01-30T17:32:06.978Z,5.50
2018-01-30T17:34:36.415Z,5.50
2018-01-30T17:37:05.474Z,5.50
2018-01-30T17:39:34.603Z,5.50
2018-01-30T17:42:04.400Z,5.50
2018-01-30T17:44:33.883Z,5.40
2018-01-30T17:47:03.673Z,5.50
2018-01-30T17:49:33.433Z,5.40
2018-01-30T17:52:03.207Z,5.40
2018-01-30T17:54:32.433Z,5.30
2018-01-30T17:57:03.226Z,5.30
2018-01-30T17:59:32.295Z,5.20
2018-01-30T18:02:01.306Z,5.20
2018-01-30T18:04:30.756Z,5.10
2018-01-30T18:06:59.855Z,5.10
2018-01-30T18:09:29.793Z,5.10
2018-01-30T18:11:58.980Z,5.30
2018-01-30T18:14:28.721Z,5.00
2018-01-30T18:16:57.786Z,5.00
2018-01-30T18:19:27.256Z,5.00
2018-01-30T18:21:56.296Z,5.00
2018-01-30T18:24:25.286Z,4.90
2018-01-30T18:26:54.748Z,4.90
2018-01-30T18:29:23.758Z,4.80
2018-01-30T18:31:53.562Z,4.80
2018-01-30T18:34:23.514Z,4.80
2018-01-30T18:36:52.543Z,4.80
2018-01-30T18:39:22.421Z,4.80
2018-01-30T18:41:51.967Z,4.80
2018-01-30T18:44:20.983Z,4.70
2018-01-30T18:46:50.008Z,4.70
2018-01-30T18:49:19.040Z,4.80
2018-01-30T18:51:48.059Z,4.90
2018-01-30T18:54:17.119Z,5.00
2018-01-30T18:56:46.528Z,5.00
2018-01-30T18:59:16.783Z,5.00
2018-01-30T19:01:46.227Z,5.00
2018-01-30T19:04:15.477Z,5.00
2018-01-30T19:06:44.482Z,4.90
2018-01-30T19:09:14.333Z,5.00
2018-01-30T19:11:43.391Z,5.00
2018-01-30T19:14:12.480Z,5.00
2018-01-30T19:16:41.545Z,5.00
2018-01-30T19:19:11.064Z,5.00
2018-01-30T19:21:40.176Z,5.00
2018-01-30T19:24:10.087Z,4.90
2018-01-30T19:26:39.510Z,4.80
2018-01-30T19:29:09.016Z,4.80
2018-01-30T19:31:38.086Z,4.70
2018-01-30T19:34:07.099Z,4.80
2018-01-30T19:36:36.158Z,4.80
2018-01-30T19:39:05.187Z,4.80
2018-01-30T19:41:34.662Z,4.70
2018-01-30T19:44:04.690Z,4.60
2018-01-30T19:46:33.790Z,4.50
2018-01-30T19:49:03.288Z,4.40
2018-01-30T19:51:33.094Z,4.30
2018-01-30T19:54:02.311Z,4.30
2018-01-30T19:56:31.789Z,4.40
2018-01-30T19:59:01.703Z,4.40
2018-01-30T20:01:31.356Z,4.50
2018-01-30T20:04:00.483Z,4.40
2018-01-30T20:06:29.611Z,4.40
2018-01-30T20:08:59.449Z,4.40
2018-01-30T20:11:28.542Z,4.30
2018-01-30T20:13:58.578Z,4.40
2018-01-30T20:16:28.452Z,4.30
2018-01-30T20:18:58.304Z,4.30
2018-01-30T20:21:27.377Z,4.20
2018-01-30T20:23:56.674Z,4.20
2018-01-30T20:26:32.309Z,4.10
2018-01-30T20:29:01.620Z,4.20
2018-01-30T20:31:31.521Z,4.20
2018-01-30T20:34:01.056Z,4.20
2018-01-30T20:36:30.458Z,4.20
2018-01-30T20:38:59.562Z,4.30
2018-01-30T20:41:30.432Z,4.30
2018-01-30T20:43:59.663Z,4.30
2018-01-30T20:46:29.527Z,4.30
2018-01-30T20:48:58.586Z,4.30
2018-01-30T20:51:28.374Z,4.40
2018-01-30T20:53:59.152Z,4.40
2018-01-30T20:56:28.404Z,4.40
2018-01-30T20:58:58.320Z,4.50
2018-01-30T21:01:27.929Z,4.50
2018-01-30T21:03:56.953Z,4.40
2018-01-30T21:06:26.825Z,4.50
2018-01-30T21:08:56.698Z,4.50
2018-01-30T21:11:25.723Z,4.60
2018-01-30T21:13:54.795Z,4.50
2018-01-30T21:16:24.245Z,4.50
2018-01-30T21:18:53.274Z,4.50
2018-01-30T21:21:22.349Z,4.50
2018-01-30T21:23:52.784Z,4.50
2018-01-30T21:26:21.947Z,4.50
2018-01-30T21:28:50.952Z,4.50
2018-01-30T21:31:20.773Z,4.40
2018-01-30T21:33:49.828Z,4.40
2018-01-30T21:36:18.948Z,4.40
2018-01-30T21:38:48.732Z,4.40
2018-01-30T21:41:17.738Z,4.40
2018-01-30T21:43:47.557Z,4.30
2018-01-30T21:46:17.329Z,4.40
2018-01-30T21:48:46.415Z,4.30
2018-01-30T21:51:15.454Z,4.30
2018-01-30T21:53:45.414Z,4.30
2018-01-30T21:56:14.462Z,4.30
2018-01-30T21:58:43.492Z,4.20
2018-01-30T22:01:12.553Z,4.20
2018-01-30T22:03:42.334Z,4.20
2018-01-30T22:06:11.359Z,4.20
2018-01-30T22:08:41.319Z,4.20
2018-01-30T22:11:10.377Z,4.20
2018-01-30T22:13:39.776Z,4.30
2018-01-30T22:16:09.599Z,4.20
2018-01-30T22:18:38.653Z,4.10
2018-01-30T22:21:07.661Z,4.00
2018-01-30T22:23:37.182Z,4.00
2018-01-30T22:26:06.980Z,4.00
2018-01-30T22:28:36.008Z,4.00
2018-01-30T22:31:05.028Z,4.00
2018-01-30T22:33:34.109Z,4.00
2018-01-30T22:36:03.847Z,4.00
2018-01-30T22:38:32.823Z,4.00
2018-01-30T22:41:02.824Z,4.00
2018-01-30T22:43:31.884Z,3.90
2018-01-30T22:46:01.648Z,3.90
